RYR873M EBCI-LIME
Flight info
| Callsign | RYR873M |
|---|---|
| Flight time | 1h 5m |
| Altitude | 33000 |
| Route | RITAX UT27 ROUSY DCT GTQ DCT DEVDI DCT RIPUS DCT GERSA DCT SOSON DCT ODINA |
| Aircraft | B738/M-SDE3FGILRWY/SB1 |
Departure
| Time | 2026-04-29 15:18 |
|---|---|
| Airport | Brussels South Charleroi Airport (EBCI) |
Arrival
| Time | 2026-04-29 16:24 |
|---|---|
| Airport | Il Caravaggio International Airport (LIME) |
| Time | Latitude | Longitude | Altitude | Speed | Heading |
|---|---|---|---|---|---|
| 2026-04-29 14:56 | 50.46869 | 4.47099 | 584 ft | 0 kts | 335° |
| 2026-04-29 15:03 | 50.46860 | 4.47105 | 584 ft | 4 kts | 336° |
| 2026-04-29 15:03 | 50.46838 | 4.47126 | 584 ft | 4 kts | 306° |
| 2026-04-29 15:03 | 50.46830 | 4.47161 | 584 ft | 4 kts | 257° |
| 2026-04-29 15:04 | 50.46832 | 4.47175 | 585 ft | 1 kts | 245° |
| 2026-04-29 15:08 | 50.46832 | 4.47173 | 585 ft | 1 kts | 245° |
| 2026-04-29 15:08 | 50.46821 | 4.47138 | 585 ft | 6 kts | 245° |
| 2026-04-29 15:08 | 50.46799 | 4.47064 | 584 ft | 9 kts | 245° |
| 2026-04-29 15:08 | 50.46769 | 4.46961 | 584 ft | 11 kts | 245° |
| 2026-04-29 15:09 | 50.46735 | 4.46843 | 586 ft | 12 kts | 245° |
| 2026-04-29 15:09 | 50.46687 | 4.46772 | 588 ft | 10 kts | 178° |
| 2026-04-29 15:09 | 50.46625 | 4.46800 | 591 ft | 9 kts | 186° |
| 2026-04-29 15:09 | 50.46582 | 4.46719 | 590 ft | 12 kts | 245° |
| 2026-04-29 15:10 | 50.46540 | 4.46575 | 590 ft | 18 kts | 245° |
| 2026-04-29 15:10 | 50.46477 | 4.46358 | 588 ft | 24 kts | 245° |
| 2026-04-29 15:10 | 50.46411 | 4.46129 | 590 ft | 23 kts | 245° |
| 2026-04-29 15:10 | 50.46346 | 4.45907 | 596 ft | 22 kts | 245° |
| 2026-04-29 15:11 | 50.46283 | 4.45692 | 596 ft | 21 kts | 245° |
| 2026-04-29 15:11 | 50.46222 | 4.45483 | 598 ft | 21 kts | 246° |
| 2026-04-29 15:11 | 50.46163 | 4.45279 | 598 ft | 20 kts | 245° |
| 2026-04-29 15:11 | 50.46106 | 4.45082 | 595 ft | 20 kts | 245° |
| 2026-04-29 15:12 | 50.46050 | 4.44890 | 596 ft | 19 kts | 245° |
| 2026-04-29 15:12 | 50.46014 | 4.44766 | 595 ft | 19 kts | 245° |
| 2026-04-29 15:12 | 50.45943 | 4.44524 | 599 ft | 18 kts | 245° |
| 2026-04-29 15:12 | 50.45877 | 4.44365 | 598 ft | 17 kts | 232° |
| 2026-04-29 15:13 | 50.45805 | 4.44220 | 597 ft | 17 kts | 232° |
| 2026-04-29 15:13 | 50.45779 | 4.44168 | 596 ft | 1 kts | 231° |
| 2026-04-29 15:13 | 50.45776 | 4.44162 | 595 ft | 0 kts | 231° |
| 2026-04-29 15:15 | 50.45776 | 4.44161 | 595 ft | 1 kts | 231° |
| 2026-04-29 15:15 | 50.45764 | 4.44137 | 594 ft | 4 kts | 231° |
| 2026-04-29 15:15 | 50.45735 | 4.44082 | 593 ft | 9 kts | 231° |
| 2026-04-29 15:16 | 50.45695 | 4.44002 | 593 ft | 10 kts | 230° |
| 2026-04-29 15:16 | 50.45643 | 4.43926 | 592 ft | 11 kts | 216° |
| 2026-04-29 15:16 | 50.45583 | 4.43857 | 591 ft | 11 kts | 217° |
| 2026-04-29 15:16 | 50.45558 | 4.43758 | 593 ft | 10 kts | 290° |
| 2026-04-29 15:17 | 50.45541 | 4.43683 | 593 ft | 7 kts | 169° |
| 2026-04-29 15:17 | 50.45535 | 4.43739 | 594 ft | 0 kts | 67° |
| 2026-04-29 15:17 | 50.45541 | 4.43761 | 594 ft | 18 kts | 66° |
| 2026-04-29 15:17 | 50.45725 | 4.44390 | 597 ft | 105 kts | 65° |
| 2026-04-29 15:18 | 50.46114 | 4.45731 | 885 ft | 150 kts | 64° |
| 2026-04-29 15:18 | 50.46570 | 4.47266 | 1934 ft | 157 kts | 67° |
| 2026-04-29 15:18 | 50.47057 | 4.48805 | 3088 ft | 157 kts | 58° |
| 2026-04-29 15:18 | 50.47917 | 4.49944 | 3951 ft | 171 kts | 25° |
| 2026-04-29 15:19 | 50.49051 | 4.50411 | 4858 ft | 169 kts | 39° |
| 2026-04-29 15:19 | 50.49807 | 4.51873 | 5160 ft | 185 kts | 69° |
| 2026-04-29 15:19 | 50.50486 | 4.53762 | 5461 ft | 208 kts | 61° |
| 2026-04-29 15:19 | 50.51293 | 4.55643 | 6240 ft | 208 kts | 59° |
| 2026-04-29 15:20 | 50.52134 | 4.57476 | 7029 ft | 208 kts | 58° |
| 2026-04-29 15:20 | 50.53004 | 4.59359 | 7689 ft | 218 kts | 57° |
| 2026-04-29 15:20 | 50.53974 | 4.61385 | 7995 ft | 246 kts | 56° |
| 2026-04-29 15:20 | 50.55057 | 4.63611 | 8586 ft | 259 kts | 56° |
| 2026-04-29 15:21 | 50.56173 | 4.65888 | 9444 ft | 264 kts | 54° |
| 2026-04-29 15:21 | 50.57305 | 4.68190 | 10323 ft | 267 kts | 54° |
| 2026-04-29 15:21 | 50.58474 | 4.70568 | 10810 ft | 286 kts | 54° |
| 2026-04-29 15:21 | 50.59624 | 4.73272 | 11022 ft | 309 kts | 68° |
| 2026-04-29 15:22 | 50.59883 | 4.76645 | 11682 ft | 315 kts | 97° |
| 2026-04-29 15:22 | 50.59204 | 4.79943 | 12562 ft | 321 kts | 115° |
| 2026-04-29 15:22 | 50.57919 | 4.82879 | 13273 ft | 334 kts | 130° |
| 2026-04-29 15:22 | 50.56132 | 4.85326 | 13936 ft | 344 kts | 138° |
| 2026-04-29 15:23 | 50.54233 | 4.87612 | 14758 ft | 346 kts | 139° |
| 2026-04-29 15:23 | 50.52288 | 4.89894 | 15381 ft | 353 kts | 140° |
| 2026-04-29 15:23 | 50.50298 | 4.92220 | 15966 ft | 360 kts | 140° |
| 2026-04-29 15:23 | 50.48281 | 4.94585 | 16652 ft | 363 kts | 139° |
| 2026-04-29 15:24 | 50.46247 | 4.96982 | 17328 ft | 368 kts | 140° |
| 2026-04-29 15:24 | 50.44190 | 4.99415 | 17983 ft | 373 kts | 139° |
| 2026-04-29 15:24 | 50.42104 | 5.01890 | 18621 ft | 378 kts | 139° |
| 2026-04-29 15:24 | 50.40030 | 5.04355 | 19181 ft | 381 kts | 139° |
| 2026-04-29 15:25 | 50.37883 | 5.06907 | 19835 ft | 383 kts | 139° |
| 2026-04-29 15:25 | 50.35787 | 5.09398 | 20459 ft | 385 kts | 139° |
| 2026-04-29 15:25 | 50.33641 | 5.11948 | 21015 ft | 389 kts | 139° |
| 2026-04-29 15:25 | 50.31473 | 5.14523 | 21588 ft | 393 kts | 139° |
| 2026-04-29 15:26 | 50.29290 | 5.17112 | 22201 ft | 395 kts | 139° |
| 2026-04-29 15:26 | 50.27097 | 5.19709 | 22811 ft | 397 kts | 139° |
| 2026-04-29 15:26 | 50.24891 | 5.22320 | 23380 ft | 399 kts | 139° |
| 2026-04-29 15:26 | 50.22665 | 5.24951 | 23906 ft | 403 kts | 139° |
| 2026-04-29 15:27 | 50.20425 | 5.27595 | 24354 ft | 405 kts | 139° |
| 2026-04-29 15:27 | 50.18173 | 5.30251 | 24839 ft | 407 kts | 139° |
| 2026-04-29 15:27 | 50.15910 | 5.32916 | 25321 ft | 409 kts | 139° |
| 2026-04-29 15:27 | 50.13634 | 5.35593 | 25770 ft | 411 kts | 139° |
| 2026-04-29 15:28 | 50.11348 | 5.38280 | 26216 ft | 413 kts | 139° |
| 2026-04-29 15:28 | 50.09797 | 5.40099 | 26510 ft | 414 kts | 139° |
| 2026-04-29 15:28 | 50.06736 | 5.43688 | 27084 ft | 417 kts | 139° |
| 2026-04-29 15:28 | 50.04412 | 5.46409 | 27522 ft | 419 kts | 139° |
| 2026-04-29 15:29 | 50.02072 | 5.49144 | 27959 ft | 422 kts | 139° |
| 2026-04-29 15:29 | 49.97343 | 5.54663 | 28669 ft | 428 kts | 139° |
| 2026-04-29 15:30 | 49.92565 | 5.60225 | 29479 ft | 431 kts | 139° |
| 2026-04-29 15:30 | 49.90161 | 5.63017 | 29838 ft | 433 kts | 139° |
| 2026-04-29 15:30 | 49.87741 | 5.65826 | 30198 ft | 435 kts | 139° |
| 2026-04-29 15:30 | 49.85309 | 5.68644 | 30504 ft | 437 kts | 139° |
| 2026-04-29 15:31 | 49.82869 | 5.71467 | 30782 ft | 440 kts | 139° |
| 2026-04-29 15:31 | 49.80409 | 5.74311 | 31027 ft | 442 kts | 139° |
| 2026-04-29 15:31 | 49.77936 | 5.77165 | 31264 ft | 445 kts | 139° |
| 2026-04-29 15:31 | 49.75447 | 5.80035 | 31533 ft | 447 kts | 140° |
| 2026-04-29 15:32 | 49.72953 | 5.82904 | 31878 ft | 447 kts | 140° |
| 2026-04-29 15:32 | 49.70459 | 5.85769 | 32265 ft | 445 kts | 140° |
| 2026-04-29 15:32 | 49.67977 | 5.88617 | 32634 ft | 445 kts | 139° |
| 2026-04-29 15:32 | 49.65489 | 5.91469 | 32948 ft | 446 kts | 140° |
| 2026-04-29 15:33 | 49.62998 | 5.94322 | 33273 ft | 445 kts | 140° |
| 2026-04-29 15:33 | 49.60512 | 5.97166 | 33611 ft | 445 kts | 140° |
| 2026-04-29 15:33 | 49.58025 | 6.00007 | 33914 ft | 446 kts | 140° |
| 2026-04-29 15:34 | 49.52979 | 6.05766 | 34160 ft | 454 kts | 140° |
| 2026-04-29 15:34 | 49.50439 | 6.08657 | 34488 ft | 452 kts | 141° |
| 2026-04-29 15:34 | 49.47910 | 6.11528 | 34763 ft | 452 kts | 140° |
| 2026-04-29 15:34 | 49.45372 | 6.14407 | 34914 ft | 455 kts | 140° |
| 2026-04-29 15:35 | 49.42817 | 6.17302 | 35071 ft | 457 kts | 141° |
| 2026-04-29 15:35 | 49.40259 | 6.20196 | 35388 ft | 455 kts | 141° |
| 2026-04-29 15:35 | 49.37707 | 6.23080 | 35589 ft | 457 kts | 141° |
| 2026-04-29 15:35 | 49.35148 | 6.25969 | 35854 ft | 457 kts | 142° |
| 2026-04-29 15:36 | 49.32578 | 6.28868 | 35932 ft | 461 kts | 142° |
| 2026-04-29 15:36 | 49.27380 | 6.34717 | 36292 ft | 463 kts | 142° |
| 2026-04-29 15:36 | 49.25662 | 6.36646 | 36491 ft | 462 kts | 142° |
| 2026-04-29 15:37 | 49.23067 | 6.39555 | 36696 ft | 463 kts | 142° |
| 2026-04-29 15:37 | 49.17822 | 6.45388 | 37025 ft | 466 kts | 145° |
| 2026-04-29 15:37 | 49.15009 | 6.47865 | 37174 ft | 469 kts | 152° |
| 2026-04-29 15:38 | 49.12098 | 6.50095 | 37453 ft | 466 kts | 153° |
| 2026-04-29 15:38 | 49.09181 | 6.52247 | 37677 ft | 467 kts | 154° |
| 2026-04-29 15:38 | 49.06238 | 6.54405 | 37736 ft | 470 kts | 154° |
| 2026-04-29 15:38 | 49.03288 | 6.56585 | 37901 ft | 472 kts | 154° |
| 2026-04-29 15:39 | 49.00348 | 6.58782 | 38158 ft | 470 kts | 154° |
| 2026-04-29 15:39 | 48.97416 | 6.60991 | 38422 ft | 469 kts | 154° |
| 2026-04-29 15:39 | 48.94495 | 6.63207 | 38586 ft | 470 kts | 153° |
| 2026-04-29 15:39 | 48.91564 | 6.65435 | 38733 ft | 471 kts | 153° |
| 2026-04-29 15:40 | 48.88632 | 6.67664 | 38895 ft | 471 kts | 153° |
| 2026-04-29 15:40 | 48.85706 | 6.69886 | 39050 ft | 470 kts | 154° |
| 2026-04-29 15:40 | 48.82776 | 6.72108 | 39161 ft | 471 kts | 154° |
| 2026-04-29 15:41 | 48.76883 | 6.76563 | 39167 ft | 473 kts | 154° |
| 2026-04-29 15:41 | 48.71009 | 6.80990 | 39162 ft | 470 kts | 154° |
| 2026-04-29 15:42 | 48.65166 | 6.85382 | 39163 ft | 468 kts | 154° |
| 2026-04-29 15:42 | 48.59348 | 6.89743 | 39159 ft | 466 kts | 154° |
| 2026-04-29 15:43 | 48.53546 | 6.94081 | 39183 ft | 465 kts | 154° |
| 2026-04-29 15:43 | 48.47743 | 6.98408 | 39164 ft | 466 kts | 154° |
| 2026-04-29 15:44 | 48.41923 | 7.02738 | 39147 ft | 467 kts | 154° |
| 2026-04-29 15:44 | 48.36081 | 7.07073 | 39160 ft | 469 kts | 154° |
| 2026-04-29 15:45 | 48.30211 | 7.11416 | 39149 ft | 471 kts | 154° |
| 2026-04-29 15:45 | 48.24309 | 7.15773 | 39141 ft | 474 kts | 154° |
| 2026-04-29 15:46 | 48.18388 | 7.20134 | 39126 ft | 475 kts | 155° |
| 2026-04-29 15:46 | 48.12452 | 7.24494 | 39128 ft | 475 kts | 155° |
| 2026-04-29 15:47 | 48.06520 | 7.28837 | 39139 ft | 475 kts | 155° |
| 2026-04-29 15:47 | 48.00582 | 7.33174 | 39132 ft | 475 kts | 155° |
| 2026-04-29 15:48 | 47.94643 | 7.37503 | 39118 ft | 474 kts | 155° |
| 2026-04-29 15:48 | 47.88718 | 7.41812 | 39113 ft | 474 kts | 155° |
| 2026-04-29 15:49 | 47.82795 | 7.46104 | 39110 ft | 473 kts | 155° |
| 2026-04-29 15:49 | 47.76886 | 7.50375 | 39104 ft | 472 kts | 155° |
| 2026-04-29 15:50 | 47.70982 | 7.54633 | 39099 ft | 471 kts | 156° |
| 2026-04-29 15:50 | 47.65085 | 7.58875 | 39116 ft | 471 kts | 156° |
| 2026-04-29 15:51 | 47.59182 | 7.63111 | 39109 ft | 471 kts | 156° |
| 2026-04-29 15:51 | 47.53278 | 7.67337 | 39083 ft | 471 kts | 156° |
| 2026-04-29 15:52 | 47.47376 | 7.71551 | 39101 ft | 471 kts | 156° |
| 2026-04-29 15:52 | 47.41472 | 7.75756 | 39110 ft | 471 kts | 156° |
| 2026-04-29 15:53 | 47.35565 | 7.79953 | 39102 ft | 472 kts | 156° |
| 2026-04-29 15:53 | 47.29651 | 7.84143 | 39017 ft | 473 kts | 156° |
| 2026-04-29 15:53 | 47.26659 | 7.86259 | 38488 ft | 479 kts | 156° |
| 2026-04-29 15:54 | 47.23659 | 7.88378 | 37944 ft | 476 kts | 156° |
| 2026-04-29 15:54 | 47.20691 | 7.90475 | 37597 ft | 470 kts | 157° |
| 2026-04-29 15:54 | 47.17759 | 7.92544 | 37162 ft | 466 kts | 157° |
| 2026-04-29 15:54 | 47.14853 | 7.94591 | 36820 ft | 461 kts | 158° |
| 2026-04-29 15:55 | 47.11972 | 7.96618 | 36417 ft | 457 kts | 158° |
| 2026-04-29 15:55 | 47.09120 | 7.98620 | 36045 ft | 452 kts | 158° |
| 2026-04-29 15:55 | 47.06296 | 8.00601 | 35684 ft | 448 kts | 158° |
| 2026-04-29 15:55 | 47.03492 | 8.02565 | 35296 ft | 445 kts | 159° |
| 2026-04-29 15:56 | 47.00708 | 8.04513 | 34929 ft | 442 kts | 159° |
| 2026-04-29 15:56 | 46.97941 | 8.06447 | 34546 ft | 439 kts | 159° |
| 2026-04-29 15:56 | 46.95193 | 8.08365 | 34188 ft | 436 kts | 159° |
| 2026-04-29 15:56 | 46.92462 | 8.10268 | 33773 ft | 433 kts | 160° |
| 2026-04-29 15:57 | 46.89787 | 8.12131 | 33365 ft | 430 kts | 159° |
| 2026-04-29 15:57 | 46.87093 | 8.14005 | 32970 ft | 426 kts | 159° |
| 2026-04-29 15:57 | 46.84437 | 8.15852 | 32639 ft | 421 kts | 159° |
| 2026-04-29 15:57 | 46.81802 | 8.17681 | 32285 ft | 418 kts | 159° |
| 2026-04-29 15:58 | 46.79183 | 8.19496 | 31941 ft | 416 kts | 159° |
| 2026-04-29 15:58 | 46.76573 | 8.21303 | 31549 ft | 414 kts | 159° |
| 2026-04-29 15:58 | 46.73978 | 8.23098 | 31206 ft | 412 kts | 159° |
| 2026-04-29 15:58 | 46.71393 | 8.24884 | 30856 ft | 410 kts | 159° |
| 2026-04-29 15:59 | 46.68822 | 8.26658 | 30514 ft | 408 kts | 159° |
| 2026-04-29 15:59 | 46.66258 | 8.28426 | 30136 ft | 407 kts | 159° |
| 2026-04-29 15:59 | 46.63704 | 8.30186 | 29730 ft | 404 kts | 158° |
| 2026-04-29 15:59 | 46.61176 | 8.31925 | 29401 ft | 400 kts | 158° |
| 2026-04-29 16:00 | 46.58663 | 8.33654 | 28999 ft | 399 kts | 158° |
| 2026-04-29 16:00 | 46.56167 | 8.35369 | 28647 ft | 396 kts | 158° |
| 2026-04-29 16:00 | 46.53685 | 8.37073 | 28275 ft | 393 kts | 158° |
| 2026-04-29 16:00 | 46.51221 | 8.38761 | 27924 ft | 391 kts | 158° |
| 2026-04-29 16:01 | 46.48768 | 8.40441 | 27543 ft | 388 kts | 158° |
| 2026-04-29 16:01 | 46.46335 | 8.42105 | 27174 ft | 385 kts | 158° |
| 2026-04-29 16:01 | 46.43919 | 8.43756 | 26822 ft | 382 kts | 158° |
| 2026-04-29 16:01 | 46.41530 | 8.45388 | 26507 ft | 379 kts | 158° |
| 2026-04-29 16:02 | 46.39147 | 8.47013 | 26153 ft | 378 kts | 158° |
| 2026-04-29 16:02 | 46.36778 | 8.48627 | 25801 ft | 376 kts | 158° |
| 2026-04-29 16:02 | 46.34419 | 8.50232 | 25455 ft | 373 kts | 158° |
| 2026-04-29 16:02 | 46.32073 | 8.51828 | 25111 ft | 371 kts | 158° |
| 2026-04-29 16:03 | 46.29739 | 8.53414 | 24770 ft | 369 kts | 158° |
| 2026-04-29 16:03 | 46.27416 | 8.54991 | 24434 ft | 369 kts | 158° |
| 2026-04-29 16:03 | 46.25092 | 8.56567 | 24064 ft | 369 kts | 158° |
| 2026-04-29 16:03 | 46.22772 | 8.58139 | 23716 ft | 367 kts | 158° |
| 2026-04-29 16:04 | 46.20463 | 8.59702 | 23338 ft | 366 kts | 158° |
| 2026-04-29 16:04 | 46.18161 | 8.61260 | 22962 ft | 364 kts | 157° |
| 2026-04-29 16:04 | 46.15875 | 8.62805 | 22594 ft | 362 kts | 157° |
| 2026-04-29 16:04 | 46.13605 | 8.64337 | 22253 ft | 359 kts | 157° |
| 2026-04-29 16:05 | 46.11444 | 8.66133 | 21903 ft | 360 kts | 143° |
| 2026-04-29 16:05 | 46.09632 | 8.68606 | 21601 ft | 358 kts | 130° |
| 2026-04-29 16:05 | 46.08222 | 8.71549 | 21263 ft | 356 kts | 121° |
| 2026-04-29 16:05 | 46.06966 | 8.74617 | 20953 ft | 354 kts | 120° |
| 2026-04-29 16:06 | 46.05736 | 8.77689 | 20609 ft | 353 kts | 120° |
| 2026-04-29 16:06 | 46.04514 | 8.80741 | 20283 ft | 350 kts | 120° |
| 2026-04-29 16:06 | 46.03292 | 8.83769 | 19952 ft | 349 kts | 121° |
| 2026-04-29 16:06 | 46.02070 | 8.86776 | 19608 ft | 347 kts | 120° |
| 2026-04-29 16:07 | 46.00850 | 8.89762 | 19304 ft | 345 kts | 120° |
| 2026-04-29 16:07 | 46.00042 | 8.91731 | 19076 ft | 345 kts | 120° |
| 2026-04-29 16:07 | 45.98415 | 8.95687 | 18658 ft | 343 kts | 120° |
| 2026-04-29 16:07 | 45.97202 | 8.98628 | 18331 ft | 342 kts | 120° |
| 2026-04-29 16:08 | 45.95991 | 9.01561 | 17968 ft | 341 kts | 120° |
| 2026-04-29 16:08 | 45.94779 | 9.04492 | 17605 ft | 340 kts | 120° |
| 2026-04-29 16:08 | 45.93572 | 9.07405 | 17263 ft | 338 kts | 120° |
| 2026-04-29 16:08 | 45.92372 | 9.10302 | 16933 ft | 336 kts | 120° |
| 2026-04-29 16:09 | 45.91182 | 9.13171 | 16613 ft | 333 kts | 120° |
| 2026-04-29 16:09 | 45.89999 | 9.16020 | 16304 ft | 331 kts | 120° |
| 2026-04-29 16:09 | 45.88822 | 9.18852 | 15990 ft | 329 kts | 120° |
| 2026-04-29 16:09 | 45.87651 | 9.21667 | 15662 ft | 328 kts | 120° |
| 2026-04-29 16:10 | 45.86484 | 9.24471 | 15343 ft | 326 kts | 120° |
| 2026-04-29 16:10 | 45.85322 | 9.27190 | 15042 ft | 323 kts | 125° |
| 2026-04-29 16:10 | 45.83934 | 9.29700 | 14785 ft | 320 kts | 131° |
| 2026-04-29 16:10 | 45.82436 | 9.32105 | 14497 ft | 318 kts | 132° |
| 2026-04-29 16:11 | 45.80968 | 9.34412 | 14194 ft | 317 kts | 132° |
| 2026-04-29 16:11 | 45.79472 | 9.36773 | 13892 ft | 315 kts | 132° |
| 2026-04-29 16:11 | 45.78031 | 9.39071 | 13595 ft | 313 kts | 131° |
| 2026-04-29 16:11 | 45.76589 | 9.41391 | 13285 ft | 310 kts | 131° |
| 2026-04-29 16:12 | 45.75166 | 9.43692 | 12972 ft | 308 kts | 131° |
| 2026-04-29 16:12 | 45.74211 | 9.45243 | 12771 ft | 307 kts | 131° |
| 2026-04-29 16:12 | 45.72357 | 9.48257 | 12353 ft | 302 kts | 131° |
| 2026-04-29 16:12 | 45.70976 | 9.50504 | 11891 ft | 300 kts | 131° |
| 2026-04-29 16:13 | 45.69599 | 9.52744 | 11424 ft | 299 kts | 131° |
| 2026-04-29 16:13 | 45.68229 | 9.54973 | 10979 ft | 298 kts | 131° |
| 2026-04-29 16:13 | 45.66870 | 9.57183 | 10593 ft | 294 kts | 131° |
| 2026-04-29 16:13 | 45.65525 | 9.59368 | 10193 ft | 292 kts | 131° |
| 2026-04-29 16:14 | 45.64185 | 9.61543 | 9777 ft | 290 kts | 131° |
| 2026-04-29 16:14 | 45.62864 | 9.63688 | 9385 ft | 288 kts | 131° |
| 2026-04-29 16:14 | 45.61538 | 9.65837 | 9069 ft | 287 kts | 132° |
| 2026-04-29 16:14 | 45.60243 | 9.67937 | 9000 ft | 276 kts | 132° |
| 2026-04-29 16:15 | 45.58990 | 9.69966 | 8841 ft | 271 kts | 132° |
| 2026-04-29 16:15 | 45.57752 | 9.71970 | 8582 ft | 268 kts | 132° |
| 2026-04-29 16:15 | 45.56527 | 9.73949 | 8351 ft | 263 kts | 132° |
| 2026-04-29 16:15 | 45.55326 | 9.75887 | 7974 ft | 260 kts | 132° |
| 2026-04-29 16:16 | 45.54130 | 9.77817 | 7606 ft | 257 kts | 132° |
| 2026-04-29 16:16 | 45.53052 | 9.79765 | 7383 ft | 248 kts | 117° |
| 2026-04-29 16:16 | 45.52555 | 9.82083 | 7154 ft | 241 kts | 105° |
| 2026-04-29 16:16 | 45.52144 | 9.84369 | 6907 ft | 235 kts | 106° |
| 2026-04-29 16:17 | 45.51729 | 9.86598 | 6646 ft | 230 kts | 107° |
| 2026-04-29 16:17 | 45.51321 | 9.88774 | 6396 ft | 225 kts | 107° |
| 2026-04-29 16:17 | 45.50926 | 9.90876 | 6257 ft | 214 kts | 107° |
| 2026-04-29 16:17 | 45.50636 | 9.92906 | 6090 ft | 206 kts | 90° |
| 2026-04-29 16:18 | 45.51106 | 9.94788 | 5850 ft | 205 kts | 53° |
| 2026-04-29 16:18 | 45.52258 | 9.95965 | 5581 ft | 207 kts | 21° |
| 2026-04-29 16:18 | 45.53688 | 9.96208 | 5318 ft | 208 kts | 359° |
| 2026-04-29 16:18 | 45.55137 | 9.96131 | 5028 ft | 209 kts | 360° |
| 2026-04-29 16:19 | 45.56585 | 9.96060 | 4768 ft | 207 kts | 360° |
| 2026-04-29 16:19 | 45.58024 | 9.95988 | 4469 ft | 207 kts | 0° |
| 2026-04-29 16:19 | 45.59461 | 9.95915 | 4190 ft | 205 kts | 0° |
| 2026-04-29 16:19 | 45.60882 | 9.95815 | 3928 ft | 202 kts | 352° |
| 2026-04-29 16:20 | 45.62087 | 9.94948 | 3914 ft | 199 kts | 309° |
| 2026-04-29 16:20 | 45.62623 | 9.93213 | 3755 ft | 193 kts | 283° |
| 2026-04-29 16:20 | 45.62976 | 9.91351 | 3476 ft | 194 kts | 284° |
| 2026-04-29 16:20 | 45.63322 | 9.89495 | 3217 ft | 191 kts | 284° |
| 2026-04-29 16:21 | 45.63658 | 9.87664 | 2956 ft | 191 kts | 284° |
| 2026-04-29 16:21 | 45.63993 | 9.85832 | 2699 ft | 190 kts | 284° |
| 2026-04-29 16:21 | 45.64218 | 9.84609 | 2544 ft | 187 kts | 284° |
| 2026-04-29 16:21 | 45.64654 | 9.82243 | 2213 ft | 183 kts | 284° |
| 2026-04-29 16:22 | 45.64868 | 9.81075 | 2060 ft | 177 kts | 284° |
| 2026-04-29 16:22 | 45.65170 | 9.79428 | 1840 ft | 164 kts | 286° |
| 2026-04-29 16:22 | 45.65453 | 9.77897 | 1594 ft | 156 kts | 286° |
| 2026-04-29 16:22 | 45.65732 | 9.76383 | 1365 ft | 159 kts | 285° |
| 2026-04-29 16:23 | 45.66014 | 9.74856 | 1187 ft | 160 kts | 287° |
| 2026-04-29 16:23 | 45.66300 | 9.73324 | 962 ft | 158 kts | 286° |
| 2026-04-29 16:23 | 45.66575 | 9.71815 | 792 ft | 153 kts | 287° |
| 2026-04-29 16:23 | 45.66804 | 9.70592 | 786 ft | 81 kts | 284° |
| 2026-04-29 16:24 | 45.66888 | 9.70115 | 786 ft | 23 kts | 277° |
| 2026-04-29 16:24 | 45.66853 | 9.69918 | 786 ft | 15 kts | 242° |
| 2026-04-29 16:24 | 45.66817 | 9.69854 | 786 ft | 7 kts | 208° |
| 2026-04-29 16:24 | 45.66773 | 9.69861 | 786 ft | 6 kts | 141° |
| 2026-04-29 16:25 | 45.66742 | 9.69888 | 786 ft | 5 kts | 180° |
| 2026-04-29 16:25 | 45.66709 | 9.69876 | 786 ft | 3 kts | 194° |
| 2026-04-29 16:25 | 45.66691 | 9.69869 | 786 ft | 3 kts | 195° |
| 2026-04-29 16:25 | 45.66676 | 9.69864 | 786 ft | 1 kts | 195° |
| 2026-04-29 16:26 | 45.66673 | 9.69862 | 786 ft | 0 kts | 195° |
| 2026-04-29 16:26 | 45.66672 | 9.69862 | 786 ft | 0 kts | 195° |